Time;durP1;ratioP1;P1;durP2;ratioP2;P2;SDS_P1;SDS_P2;PMS_P1;PMS_P2;Temp;Humidity;BMP_temperature;BMP_pressure;BME280_temperature;BME280_humidity;BME280_pressure;Samples;Min_cycle;Max_cycle;Signal;HPM_P1;HPM_P2
2022/07/26 00:04:15;;;;;;;13.10;4.33;;;23.00;64.90;;;;;;4986603;28;20270;-94
2022/07/26 00:06:44;;;;;;;14.17;4.30;;;22.90;64.90;;;;;;4999263;28;20236;-95
2022/07/26 00:09:11;;;;;;;13.73;4.30;;;22.90;65.20;;;;;;4999535;28;20272;-96
2022/07/26 00:14:34;;;;;;;14.83;4.83;;;22.90;65.50;;;;;;5006076;28;20298;-96
2022/07/26 00:17:08;;;;;;;10.20;4.10;;;22.90;65.60;;;;;;5010028;28;20203;-96
2022/07/26 00:19:35;;;;;;;17.33;4.43;;;22.90;66.20;;;;;;4996505;28;20255;-95
2022/07/26 00:24:55;;;;;;;15.23;4.10;;;22.90;66.00;;;;;;4984213;28;20337;-96
2022/07/26 00:27:24;;;;;;;12.80;3.70;;;22.90;66.20;;;;;;4979221;28;20238;-94
2022/07/26 00:30:15;;;;;;;17.07;5.10;;;22.90;66.50;;;;;;4985204;28;20214;-95
2022/07/26 00:32:42;;;;;;;14.50;4.77;;;22.90;66.30;;;;;;4988952;28;21485;-95
2022/07/26 00:35:11;;;;;;;19.43;5.23;;;22.90;66.30;;;;;;4995944;28;20621;-95
2022/07/26 00:37:44;;;;;;;12.43;4.20;;;22.90;66.60;;;;;;4994256;28;20223;-95
2022/07/26 00:40:15;;;;;;;17.03;5.17;;;22.90;67.40;;;;;;4996318;28;20282;-94
2022/07/26 00:42:44;;;;;;;10.90;3.87;;;22.90;67.40;;;;;;4989358;28;20229;-96
2022/07/26 00:45:13;;;;;;;11.87;4.30;;;22.90;67.10;;;;;;4995451;28;20258;-94
2022/07/26 00:47:49;;;;;;;28.63;7.50;;;22.90;66.90;;;;;;4996273;28;20210;-95
2022/07/26 00:50:18;;;;;;;18.50;5.77;;;22.90;67.80;;;;;;4995124;28;20190;-94
2022/07/26 00:52:53;;;;;;;18.33;5.57;;;22.90;67.30;;;;;;4995843;28;20202;-92
2022/07/26 00:55:22;;;;;;;13.37;5.07;;;22.90;68.10;;;;;;4994495;28;20245;-95
2022/07/26 00:57:52;;;;;;;15.83;4.60;;;22.90;68.00;;;;;;4977964;28;20192;-94
2022/07/26 01:00:22;;;;;;;13.10;5.20;;;22.90;68.00;;;;;;4992163;28;20231;-95
2022/07/26 01:05:34;;;;;;;15.47;4.70;;;22.90;68.00;;;;;;4970512;28;20664;-96
2022/07/26 01:08:30;;;;;;;16.03;5.00;;;22.90;67.90;;;;;;4993087;28;20206;-95
2022/07/26 01:11:35;;;;;;;17.37;5.33;;;22.90;68.90;;;;;;4999027;28;20206;-95
2022/07/26 01:14:03;;;;;;;22.43;7.87;;;23.00;69.00;;;;;;5008519;23;21038;-95
2022/07/26 01:16:31;;;;;;;14.47;4.43;;;23.00;67.80;;;;;;5016588;28;20735;-95
2022/07/26 01:18:58;;;;;;;14.17;4.43;;;23.00;68.20;;;;;;5011510;28;20208;-95
2022/07/26 01:21:34;;;;;;;10.77;3.90;;;23.00;67.80;;;;;;5028852;23;20243;-96
2022/07/26 01:24:03;;;;;;;8.50;3.43;;;23.00;68.40;;;;;;4990104;28;20276;-96
2022/07/26 01:26:32;;;;;;;10.80;4.73;;;23.10;68.10;;;;;;4991619;28;20209;-95
2022/07/26 01:29:00;;;;;;;9.90;3.37;;;23.10;67.70;;;;;;4996051;28;20280;-95
2022/07/26 01:31:31;;;;;;;18.20;5.37;;;23.10;67.30;;;;;;4996485;28;20618;-94
2022/07/26 01:34:00;;;;;;;13.57;4.57;;;23.10;67.10;;;;;;5004247;28;20212;-95
2022/07/26 01:36:41;;;;;;;12.43;4.17;;;23.10;66.70;;;;;;4988976;28;20203;-94
2022/07/26 01:39:10;;;;;;;7.93;3.40;;;23.10;66.20;;;;;;4993603;28;20294;-94
2022/07/26 01:44:27;;;;;;;5.10;2.53;;;23.10;65.50;;;;;;4982590;28;20231;-95
2022/07/26 01:47:00;;;;;;;6.47;3.20;;;23.10;65.20;;;;;;4978463;28;20205;-94
2022/07/26 01:49:29;;;;;;;5.47;3.10;;;23.10;64.60;;;;;;4991110;28;20204;-95
2022/07/26 01:51:59;;;;;;;7.17;3.07;;;23.10;64.50;;;;;;4996872;28;20207;-94
2022/07/26 01:54:26;;;;;;;8.17;3.27;;;23.00;64.00;;;;;;4995208;28;20225;-95
2022/07/26 01:56:54;;;;;;;16.13;4.47;;;23.00;63.40;;;;;;5112803;23;20225;-93
2022/07/26 01:59:22;;;;;;;7.87;2.73;;;23.00;63.20;;;;;;4994366;28;20234;-93
2022/07/26 02:01:49;;;;;;;7.97;3.13;;;23.00;63.20;;;;;;4993516;28;20214;-95
2022/07/26 02:07:13;;;;;;;9.73;3.53;;;22.90;62.70;;;;;;4992228;28;20675;-95
2022/07/26 02:09:49;;;;;;;12.70;4.03;;;22.90;62.50;;;;;;4993182;28;20238;-95
2022/07/26 02:12:26;;;;;;;11.13;3.93;;;22.90;62.30;;;;;;4994446;28;20266;-95
2022/07/26 02:15:28;;;;;;;5.83;2.87;;;22.90;62.30;;;;;;4963632;28;20207;-96
2022/07/26 02:17:58;;;;;;;11.67;3.20;;;22.80;62.20;;;;;;4995516;28;20202;-96
2022/07/26 02:20:26;;;;;;;13.47;4.20;;;22.80;62.10;;;;;;4994799;28;20252;-93
2022/07/26 02:22:55;;;;;;;13.43;3.90;;;22.80;62.10;;;;;;4984661;28;20300;-96
2022/07/26 02:25:46;;;;;;;12.87;3.47;;;22.80;62.00;;;;;;4994343;28;20302;-95
2022/07/26 02:28:14;;;;;;;13.67;4.67;;;22.70;61.70;;;;;;4992636;28;20205;-94
2022/07/26 02:30:42;;;;;;;8.93;3.37;;;22.80;61.90;;;;;;4977498;28;20254;-94
2022/07/26 02:33:10;;;;;;;12.97;4.20;;;22.70;61.80;;;;;;4989742;28;20216;-93
2022/07/26 02:35:45;;;;;;;13.63;4.17;;;22.70;62.00;;;;;;4994368;28;20211;-95
2022/07/26 02:38:15;;;;;;;7.93;2.53;;;22.70;61.90;;;;;;4979767;28;20211;-95
2022/07/26 02:40:44;;;;;;;6.93;2.50;;;22.70;61.80;;;;;;4993460;28;20650;-95
2022/07/26 02:43:44;;;;;;;8.87;3.03;;;22.70;62.00;;;;;;4994998;28;20215;-95
2022/07/26 02:46:17;;;;;;;8.93;3.13;;;22.70;61.90;;;;;;4994105;28;20258;-95
2022/07/26 02:48:44;;;;;;;7.30;2.47;;;22.60;61.90;;;;;;4976333;28;20699;-95
2022/07/26 02:51:15;;;;;;;8.67;3.17;;;22.60;62.00;;;;;;4991406;28;20230;-94
2022/07/26 02:53:44;;;;;;;11.17;2.80;;;22.60;61.90;;;;;;4995052;28;20206;-95
2022/07/26 02:56:12;;;;;;;11.33;4.00;;;22.60;62.10;;;;;;4994079;28;20210;-94
2022/07/26 02:58:39;;;;;;;7.77;2.70;;;22.60;62.10;;;;;;5003993;28;20235;-95
2022/07/26 03:01:07;;;;;;;11.10;3.63;;;22.60;62.10;;;;;;4998844;28;20570;-92
2022/07/26 03:03:37;;;;;;;5.30;2.27;;;22.60;62.00;;;;;;4977661;28;20210;-94
2022/07/26 03:06:04;;;;;;;7.33;2.70;;;22.60;62.00;;;;;;4988730;28;20206;-94
2022/07/26 03:08:32;;;;;;;8.27;2.70;;;22.60;62.00;;;;;;4993915;28;20210;-96
2022/07/26 03:11:25;;;;;;;8.63;3.07;;;22.60;61.90;;;;;;4981323;28;20684;-95
2022/07/26 03:13:52;;;;;;;12.07;3.27;;;22.60;61.60;;;;;;4980787;28;20848;-95
2022/07/26 03:16:19;;;;;;;13.03;3.23;;;22.60;61.70;;;;;;4984765;28;20207;-96
2022/07/26 03:18:47;;;;;;;13.93;4.20;;;22.60;61.70;;;;;;4974476;28;20202;-95
2022/07/26 03:21:14;;;;;;;11.30;3.57;;;22.60;61.70;;;;;;4981438;28;20277;-95
2022/07/26 03:23:41;;;;;;;7.03;2.63;;;22.50;61.60;;;;;;4993181;28;20222;-96
2022/07/26 03:26:10;;;;;;;8.63;2.77;;;22.50;61.60;;;;;;4993318;28;20229;-95
2022/07/26 03:28:41;;;;;;;37.80;11.67;;;22.50;61.50;;;;;;5000828;23;20254;-93
2022/07/26 03:31:10;;;;;;;10.53;3.53;;;22.50;61.60;;;;;;4987390;28;20203;-95
2022/07/26 03:33:37;;;;;;;12.30;3.73;;;22.50;61.60;;;;;;4975228;28;20222;-95
2022/07/26 03:39:04;;;;;;;14.53;4.17;;;22.40;61.50;;;;;;4993951;28;20214;-96
2022/07/26 03:41:31;;;;;;;18.03;4.23;;;22.40;61.60;;;;;;4994269;28;20229;-95
2022/07/26 03:47:04;;;;;;;10.30;3.67;;;22.40;61.70;;;;;;4984838;28;20336;-96
2022/07/26 03:49:31;;;;;;;15.10;4.50;;;22.40;61.70;;;;;;4993740;28;20221;-95
2022/07/26 03:51:58;;;;;;;7.47;2.53;;;22.30;61.70;;;;;;4994212;28;20298;-95
2022/07/26 03:54:26;;;;;;;20.73;6.27;;;22.30;61.80;;;;;;5000047;23;20248;-94
2022/07/26 03:56:58;;;;;;;8.37;2.63;;;22.30;61.90;;;;;;5012079;28;20230;-94
2022/07/26 03:59:27;;;;;;;5.90;2.77;;;22.30;61.80;;;;;;5014228;28;20217;-94
2022/07/26 04:01:57;;;;;;;6.50;2.57;;;22.30;61.90;;;;;;5015216;28;20233;-94
2022/07/26 04:04:25;;;;;;;10.37;3.30;;;22.30;62.00;;;;;;5017636;28;20245;-94
2022/07/26 04:06:55;;;;;;;10.23;2.60;;;22.30;62.00;;;;;;5018188;28;20236;-95
2022/07/26 04:09:24;;;;;;;7.33;2.53;;;22.30;62.10;;;;;;5007071;28;20214;-94
2022/07/26 04:11:52;;;;;;;12.00;3.70;;;22.30;62.20;;;;;;5003924;28;20202;-95
2022/07/26 04:14:20;;;;;;;6.83;2.83;;;22.30;62.40;;;;;;5017413;28;20287;-94
2022/07/26 04:16:50;;;;;;;10.17;3.47;;;22.30;62.40;;;;;;5015639;28;20205;-96
2022/07/26 04:19:18;;;;;;;9.30;3.50;;;22.30;62.40;;;;;;5008675;28;20229;-95
2022/07/26 04:21:45;;;;;;;7.17;2.83;;;22.30;62.40;;;;;;5017544;28;20307;-95
2022/07/26 04:24:12;;;;;;;8.33;2.97;;;22.30;62.40;;;;;;5015922;28;20193;-95
2022/07/26 04:26:40;;;;;;;7.20;2.63;;;22.30;62.40;;;;;;5018065;28;20283;-96
2022/07/26 04:29:17;;;;;;;11.20;2.60;;;22.30;62.50;;;;;;5017087;28;20198;-95
2022/07/26 04:31:48;;;;;;;26.10;7.60;;;22.30;62.50;;;;;;5003092;23;20196;-95
2022/07/26 04:34:29;;;;;;;14.57;4.90;;;22.30;62.50;;;;;;4995447;28;20194;-96
2022/07/26 04:36:58;;;;;;;8.53;3.10;;;22.30;62.50;;;;;;4997676;23;20266;-95
2022/07/26 04:39:26;;;;;;;13.80;3.77;;;22.30;62.40;;;;;;5015326;23;20229;-95
2022/07/26 04:41:57;;;;;;;14.77;4.73;;;22.30;62.50;;;;;;5010967;28;20801;-95
2022/07/26 04:44:24;;;;;;;10.27;3.37;;;22.30;62.50;;;;;;5023006;28;20223;-95
2022/07/26 04:46:54;;;;;;;13.77;3.73;;;22.40;62.80;;;;;;5012830;28;20231;-96
2022/07/26 04:49:34;;;;;;;11.70;4.57;;;22.40;62.70;;;;;;5025020;28;20316;-94
2022/07/26 04:52:06;;;;;;;9.77;3.47;;;22.30;62.50;;;;;;5016138;28;20914;-95
2022/07/26 04:54:33;;;;;;;10.30;3.53;;;22.40;62.80;;;;;;5009553;28;20218;-94
2022/07/26 04:57:02;;;;;;;12.93;3.97;;;22.40;62.60;;;;;;5013047;28;20201;-94
2022/07/26 04:59:45;;;;;;;9.17;3.37;;;22.40;63.40;;;;;;5013989;28;20194;-95
2022/07/26 05:02:13;;;;;;;10.30;3.27;;;22.40;62.90;;;;;;5009476;28;20235;-94
2022/07/26 05:04:42;;;;;;;8.27;3.33;;;22.40;62.60;;;;;;5013662;28;20213;-94
2022/07/26 05:07:10;;;;;;;3.70;1.93;;;22.40;62.70;;;;;;5014065;28;20662;-95
2022/07/26 05:09:40;;;;;;;12.33;4.23;;;22.40;62.70;;;;;;5015639;28;20215;-94
2022/07/26 05:12:10;;;;;;;7.67;2.83;;;22.40;62.90;;;;;;5010858;28;20247;-93
2022/07/26 05:14:39;;;;;;;7.97;2.93;;;22.40;62.70;;;;;;5013822;28;20248;-93
2022/07/26 05:17:07;;;;;;;12.17;4.23;;;22.40;62.70;;;;;;5012563;28;20206;-94
2022/07/26 05:19:34;;;;;;;7.27;2.63;;;22.40;62.70;;;;;;5014674;28;20205;-96
2022/07/26 05:22:03;;;;;;;11.67;4.47;;;22.40;62.70;;;;;;5013270;28;20241;-94
2022/07/26 05:24:31;;;;;;;7.83;2.70;;;22.50;63.10;;;;;;5011585;28;20210;-94
2022/07/26 05:26:58;;;;;;;12.90;3.60;;;22.50;63.10;;;;;;5012389;28;20214;-94
2022/07/26 05:32:04;;;;;;;5.43;2.23;;;22.50;63.00;;;;;;5005414;22;20773;-94
2022/07/26 05:34:33;;;;;;;10.10;3.33;;;22.50;62.90;;;;;;4995197;28;20244;-94
2022/07/26 05:37:05;;;;;;;8.60;2.93;;;22.50;63.00;;;;;;4994490;28;20206;-94
2022/07/26 05:39:34;;;;;;;10.50;3.83;;;22.50;63.10;;;;;;4995536;28;20217;-95
2022/07/26 05:42:02;;;;;;;7.47;2.83;;;22.50;63.10;;;;;;4986813;28;20235;-94
2022/07/26 05:44:30;;;;;;;5.60;2.10;;;22.50;63.20;;;;;;4988005;28;20202;-94
2022/07/26 05:47:00;;;;;;;8.27;3.07;;;22.50;63.10;;;;;;4995213;28;20230;-94
2022/07/26 05:49:39;;;;;;;8.27;2.83;;;22.50;63.10;;;;;;4995037;28;20648;-93
2022/07/26 05:52:08;;;;;;;5.53;2.43;;;22.50;63.40;;;;;;4994589;28;20486;-96
2022/07/26 05:54:46;;;;;;;7.30;2.33;;;22.60;63.50;;;;;;4995670;28;20227;-93
2022/07/26 05:57:16;;;;;;;12.50;3.97;;;22.50;63.50;;;;;;4992625;28;20202;-94
2022/07/26 05:59:44;;;;;;;9.57;3.13;;;22.60;63.50;;;;;;4994547;28;20297;-92
2022/07/26 06:02:11;;;;;;;9.60;2.90;;;22.60;63.40;;;;;;4998856;28;20232;-92
2022/07/26 06:04:41;;;;;;;10.23;3.57;;;22.60;63.50;;;;;;5016911;28;20185;-94
2022/07/26 06:09:53;;;;;;;8.60;2.50;;;22.70;63.80;;;;;;5057431;28;20211;-93
2022/07/26 06:12:26;;;;;;;9.90;3.50;;;22.70;63.70;;;;;;5062816;28;20191;-92
2022/07/26 06:14:53;;;;;;;7.17;3.23;;;22.70;63.60;;;;;;5079148;22;20242;-94
2022/07/26 06:17:29;;;;;;;10.43;3.60;;;22.70;63.40;;;;;;5030147;28;21435;-94
2022/07/26 06:19:56;;;;;;;6.87;2.57;;;22.70;63.50;;;;;;5026410;28;20218;-94
2022/07/26 06:22:31;;;;;;;8.83;3.13;;;22.70;63.60;;;;;;5024259;28;20571;-94
2022/07/26 06:25:21;;;;;;;9.83;3.63;;;22.70;63.60;;;;;;5022800;28;20205;-91
2022/07/26 06:27:48;;;;;;;9.13;3.03;;;22.70;63.70;;;;;;5020077;28;20217;-94
2022/07/26 06:30:16;;;;;;;10.73;3.43;;;22.70;63.50;;;;;;5022125;28;20228;-94
2022/07/26 06:32:43;;;;;;;7.03;2.73;;;22.70;63.60;;;;;;5021822;28;20239;-93
2022/07/26 06:35:20;;;;;;;8.73;2.73;;;22.70;63.70;;;;;;5021628;28;20216;-94
2022/07/26 06:37:49;;;;;;;11.23;3.33;;;22.70;63.70;;;;;;5021826;28;20546;-93
2022/07/26 06:40:17;;;;;;;9.03;2.67;;;22.70;63.80;;;;;;5022424;28;20201;-93
2022/07/26 06:42:53;;;;;;;13.80;4.50;;;22.80;63.80;;;;;;5021280;28;20228;-94
2022/07/26 06:45:21;;;;;;;9.20;3.20;;;22.90;63.50;;;;;;5019242;28;20231;-95
2022/07/26 06:47:49;;;;;;;13.17;4.10;;;22.90;63.20;;;;;;5018851;28;20198;-93
2022/07/26 06:50:16;;;;;;;9.70;3.60;;;22.90;63.00;;;;;;5018291;28;20210;-94
2022/07/26 06:52:45;;;;;;;9.13;3.30;;;22.90;63.00;;;;;;5021302;28;20202;-94
2022/07/26 06:55:13;;;;;;;10.97;4.10;;;22.90;63.00;;;;;;5018996;28;20197;-93
2022/07/26 06:57:55;;;;;;;9.17;3.23;;;23.00;63.10;;;;;;5021515;28;20576;-93
2022/07/26 07:00:27;;;;;;;14.70;3.73;;;23.00;62.90;;;;;;5021706;28;20201;-92
2022/07/26 07:02:54;;;;;;;13.00;4.10;;;23.00;62.60;;;;;;5014997;28;20221;-92
2022/07/26 07:05:53;;;;;;;8.43;2.90;;;23.00;62.60;;;;;;5014777;28;20213;-93
2022/07/26 07:08:35;;;;;;;12.27;3.90;;;23.00;62.70;;;;;;5012418;28;20190;-93
2022/07/26 07:11:03;;;;;;;7.83;2.53;;;23.10;62.50;;;;;;4993410;28;20194;-94
2022/07/26 07:13:30;;;;;;;12.33;4.33;;;23.00;62.40;;;;;;4991958;28;20228;-93
2022/07/26 07:16:05;;;;;;;9.50;3.40;;;23.10;62.40;;;;;;5012179;28;20212;-94
2022/07/26 07:18:38;;;;;;;12.43;4.23;;;23.10;62.40;;;;;;5010745;28;20209;-93
2022/07/26 07:21:09;;;;;;;6.93;2.80;;;23.00;62.30;;;;;;4992198;28;20233;-93
2022/07/26 07:23:37;;;;;;;10.27;3.70;;;23.10;62.60;;;;;;4996021;28;20283;-93
2022/07/26 07:26:14;;;;;;;11.30;4.37;;;23.00;62.70;;;;;;5012544;28;20198;-93
2022/07/26 07:28:41;;;;;;;6.83;2.87;;;23.00;62.90;;;;;;5013903;28;20243;-93
2022/07/26 07:31:10;;;;;;;12.30;4.27;;;23.10;63.30;;;;;;5010295;28;20202;-92
2022/07/26 07:33:38;;;;;;;11.53;3.50;;;23.10;63.40;;;;;;4998830;28;20611;-94
2022/07/26 07:36:05;;;;;;;6.00;2.37;;;23.20;63.70;;;;;;4994507;28;20238;-92
2022/07/26 07:38:33;;;;;;;7.90;2.63;;;23.20;63.90;;;;;;5009789;28;20245;-93
2022/07/26 07:41:01;;;;;;;7.43;2.20;;;23.30;64.30;;;;;;5014137;28;20210;-94
2022/07/26 07:43:28;;;;;;;8.10;2.80;;;23.30;64.50;;;;;;5015025;28;20649;-93
2022/07/26 07:45:57;;;;;;;5.73;2.17;;;23.30;64.40;;;;;;5012564;28;20263;-95
2022/07/26 07:48:26;;;;;;;8.90;3.03;;;23.40;64.80;;;;;;4996129;28;20237;-96
2022/07/26 07:50:54;;;;;;;6.57;2.33;;;23.40;64.70;;;;;;5009760;28;20205;-92
2022/07/26 07:53:22;;;;;;;7.23;2.63;;;23.50;64.90;;;;;;5014353;28;20282;-93
2022/07/26 07:55:58;;;;;;;4.40;1.70;;;23.60;65.20;;;;;;5013180;28;20727;-92
2022/07/26 07:58:33;;;;;;;12.23;3.87;;;23.60;65.40;;;;;;4993764;28;20209;-92
2022/07/26 08:01:00;;;;;;;13.30;4.17;;;23.70;66.00;;;;;;5005476;28;20210;-93
2022/07/26 08:03:31;;;;;;;8.07;2.33;;;23.80;67.00;;;;;;5021703;28;20285;-94
2022/07/26 08:05:58;;;;;;;6.53;2.30;;;23.80;67.40;;;;;;5025358;28;20247;-94
2022/07/26 08:08:26;;;;;;;4.87;1.77;;;23.80;67.10;;;;;;5011555;28;20232;-94
2022/07/26 08:10:54;;;;;;;3.20;1.30;;;23.80;67.10;;;;;;5010831;28;20287;-94
2022/07/26 08:13:23;;;;;;;6.43;2.30;;;23.80;67.00;;;;;;4996997;28;20208;-96
2022/07/26 08:15:51;;;;;;;5.07;1.83;;;23.90;66.80;;;;;;5007539;28;20284;-95
2022/07/26 08:18:20;;;;;;;5.43;1.87;;;23.80;66.50;;;;;;5017408;28;20230;-94
2022/07/26 08:20:50;;;;;;;10.30;3.07;;;23.80;66.90;;;;;;5022864;28;20275;-96
2022/07/26 08:23:22;;;;;;;5.83;2.27;;;23.80;67.00;;;;;;5018331;28;20225;-96
2022/07/26 08:25:51;;;;;;;6.07;2.07;;;23.80;67.60;;;;;;5014305;28;20201;-96
2022/07/26 08:28:19;;;;;;;8.83;2.90;;;23.80;67.50;;;;;;5019527;28;20215;-96
2022/07/26 08:30:46;;;;;;;9.40;3.07;;;23.70;67.10;;;;;;5128723;22;20239;-94
2022/07/26 08:33:30;;;;;;;5.40;2.00;;;23.70;67.00;;;;;;5040690;28;20218;-95
2022/07/26 08:36:01;;;;;;;9.50;3.23;;;23.70;67.90;;;;;;5042309;28;20206;-96
2022/07/26 08:38:34;;;;;;;4.47;1.83;;;23.60;67.10;;;;;;5047651;28;20201;-96
2022/07/26 08:41:07;;;;;;;5.20;1.80;;;23.60;67.20;;;;;;5041982;28;20208;-96
2022/07/26 08:43:35;;;;;;;7.30;2.20;;;23.60;67.30;;;;;;5040495;28;20241;-92
2022/07/26 08:46:04;;;;;;;3.53;1.40;;;23.60;67.30;;;;;;5039225;28;20392;-95
2022/07/26 08:48:32;;;;;;;11.47;3.83;;;23.50;67.20;;;;;;5018424;28;20197;-93
2022/07/26 08:51:08;;;;;;;6.33;1.50;;;23.50;67.10;;;;;;5043337;28;20322;-96
2022/07/26 08:53:39;;;;;;;7.27;2.50;;;23.50;67.50;;;;;;5035105;28;20345;-94
2022/07/26 08:56:16;;;;;;;8.23;2.90;;;23.50;67.50;;;;;;5035203;28;20211;-93
2022/07/26 08:58:44;;;;;;;10.90;3.70;;;23.60;67.50;;;;;;5032397;28;20572;-92
2022/07/26 09:01:12;;;;;;;6.27;1.80;;;23.60;67.60;;;;;;5036656;28;20239;-95
2022/07/26 09:03:40;;;;;;;8.10;2.67;;;23.60;67.60;;;;;;5032601;28;20289;-93
2022/07/26 09:06:20;;;;;;;7.43;2.43;;;23.70;67.60;;;;;;5036468;28;20212;-93
2022/07/26 09:08:53;;;;;;;7.97;2.17;;;23.70;68.00;;;;;;5034230;28;20234;-95
2022/07/26 09:11:31;;;;;;;7.53;2.80;;;23.80;67.80;;;;;;5035001;28;20208;-93
2022/07/26 09:14:02;;;;;;;8.17;3.07;;;23.80;67.80;;;;;;5033758;28;20214;-94
2022/07/26 09:16:29;;;;;;;11.37;3.40;;;23.80;67.90;;;;;;5034336;28;20240;-93
2022/07/26 09:19:20;;;;;;;8.37;3.03;;;23.80;67.50;;;;;;5029178;28;20192;-91
2022/07/26 09:21:49;;;;;;;8.13;2.67;;;23.90;67.90;;;;;;5004176;28;20205;-94
2022/07/26 09:24:33;;;;;;;6.83;2.70;;;24.00;67.80;;;;;;5016601;28;20229;-92
2022/07/26 09:27:03;;;;;;;11.00;3.53;;;24.10;68.00;;;;;;5013944;28;20205;-92
2022/07/26 09:29:45;;;;;;;6.07;2.00;;;24.10;68.10;;;;;;5013108;28;20236;-94
2022/07/26 09:32:21;;;;;;;13.60;4.43;;;24.10;68.20;;;;;;4994913;28;20716;-93
2022/07/26 09:34:56;;;;;;;7.80;2.83;;;24.20;68.00;;;;;;5011775;28;20215;-94
2022/07/26 09:37:42;;;;;;;9.20;3.20;;;24.20;68.00;;;;;;5017088;28;20343;-94
2022/07/26 09:40:14;;;;;;;9.47;3.53;;;24.20;68.30;;;;;;5019372;28;20207;-95
2022/07/26 09:42:55;;;;;;;7.33;2.23;;;24.20;68.80;;;;;;5002619;28;20230;-95
2022/07/26 09:45:23;;;;;;;5.73;2.30;;;24.20;68.90;;;;;;5003104;28;20275;-96
2022/07/26 09:47:50;;;;;;;8.53;3.03;;;24.20;68.70;;;;;;5024309;28;20216;-95
2022/07/26 09:50:49;;;;;;;7.87;2.47;;;24.10;68.90;;;;;;5024013;28;20229;-94
2022/07/26 09:53:22;;;;;;;6.73;2.10;;;24.10;70.20;;;;;;5023205;28;20209;-95
2022/07/26 09:55:57;;;;;;;11.30;3.50;;;24.10;69.20;;;;;;5019302;28;20213;-94
2022/07/26 09:58:24;;;;;;;6.10;2.13;;;24.00;68.50;;;;;;5028848;22;20322;-94
2022/07/26 10:00:52;;;;;;;9.03;3.00;;;24.00;68.80;;;;;;5022580;28;20208;-93
2022/07/26 10:06:10;;;;;;;5.43;1.80;;;23.90;68.90;;;;;;5036580;22;20236;-95
2022/07/26 10:08:39;;;;;;;8.80;2.90;;;23.90;68.40;;;;;;5018949;28;20217;-93
2022/07/26 10:13:52;;;;;;;7.97;2.57;;;23.90;69.90;;;;;;5020922;28;20213;-95
2022/07/26 10:16:31;;;;;;;12.07;3.40;;;23.90;69.50;;;;;;5010208;28;20206;-93
2022/07/26 10:19:06;;;;;;;7.57;2.87;;;23.90;70.00;;;;;;4999301;28;20244;-94
2022/07/26 10:21:35;;;;;;;6.97;2.60;;;23.90;70.00;;;;;;5012273;28;20224;-96
2022/07/26 10:24:07;;;;;;;10.83;3.20;;;23.90;69.90;;;;;;5016012;28;20232;-96
2022/07/26 10:29:28;;;;;;;9.70;2.83;;;24.00;69.90;;;;;;5004168;28;20264;-95
2022/07/26 10:32:15;;;;;;;8.97;3.17;;;24.00;69.60;;;;;;5006928;28;20723;-96
2022/07/26 10:34:42;;;;;;;8.10;2.90;;;24.10;70.20;;;;;;5027352;28;20235;-95
2022/07/26 10:37:12;;;;;;;6.43;2.50;;;24.10;69.90;;;;;;5033155;28;20217;-94
2022/07/26 10:40:19;;;;;;;7.23;2.57;;;24.20;70.00;;;;;;5073018;22;20244;-95
2022/07/26 10:43:33;;;;;;;7.27;2.33;;;24.20;69.70;;;;;;5030136;28;20229;-95
2022/07/26 10:46:32;;;;;;;6.57;2.13;;;24.30;69.40;;;;;;5031358;28;20220;-94
2022/07/26 10:49:03;;;;;;;5.70;1.87;;;24.30;70.00;;;;;;5048205;22;20235;-95
2022/07/26 10:51:49;;;;;;;11.60;2.43;;;24.30;69.70;;;;;;5051121;28;20257;-96
2022/07/26 10:54:23;;;;;;;7.00;2.37;;;24.30;70.40;;;;;;5005677;28;20200;-96
2022/07/26 10:56:59;;;;;;;10.27;3.53;;;24.20;69.70;;;;;;5009539;28;20201;-94
2022/07/26 10:59:32;;;;;;;7.63;2.37;;;24.20;69.30;;;;;;5026704;28;20201;-95
2022/07/26 11:05:11;;;;;;;6.33;1.80;;;24.20;70.00;;;;;;5022214;28;20274;-96
2022/07/26 11:08:00;;;;;;;8.00;2.87;;;24.20;69.70;;;;;;5023041;28;20229;-96
2022/07/26 11:10:30;;;;;;;7.17;2.60;;;24.10;69.60;;;;;;5025147;28;20203;-96
2022/07/26 11:13:12;;;;;;;9.53;3.07;;;24.10;69.50;;;;;;5029297;28;20239;-96
2022/07/26 11:15:45;;;;;;;5.97;2.17;;;24.10;70.20;;;;;;5003756;28;20211;-95
2022/07/26 11:18:33;;;;;;;;;;;;;;;;;;;;;
2022/07/26 11:23:36;;;;;;;10.47;3.43;;;24.00;70.70;;;;;;5066567;22;20240;-95
2022/07/26 11:26:22;;;;;;;9.40;2.93;;;24.00;70.30;;;;;;5026993;28;20306;-95
2022/07/26 11:28:58;;;;;;;7.03;2.17;;;24.00;70.70;;;;;;5029104;28;20208;-95
2022/07/26 11:31:36;;;;;;;12.07;4.17;;;24.00;71.50;;;;;;5024863;28;20206;-95
2022/07/26 11:34:09;;;;;;;8.87;2.73;;;24.00;71.30;;;;;;5016774;28;20657;-96
2022/07/26 11:36:41;;;;;;;7.20;2.30;;;24.00;71.10;;;;;;5028037;28;20235;-94
2022/07/26 11:39:15;;;;;;;6.30;2.20;;;23.90;70.30;;;;;;5026152;28;20754;-96
2022/07/26 11:42:05;;;;;;;8.30;2.77;;;23.90;70.40;;;;;;5028348;28;20195;-94
2022/07/26 11:44:36;;;;;;;7.13;2.67;;;23.90;70.70;;;;;;5024955;22;20284;-95
2022/07/26 11:47:18;;;;;;;9.17;3.00;;;23.90;71.00;;;;;;5004310;28;20204;-95
2022/07/26 11:49:47;;;;;;;8.10;2.93;;;23.90;70.90;;;;;;5026349;22;20238;-95
2022/07/26 11:52:14;;;;;;;13.47;4.50;;;23.90;70.40;;;;;;5026469;28;20649;-96
2022/07/26 12:01:21;;;;;;;13.43;3.43;;;23.90;71.30;;;;;;5039194;22;20251;-95
2022/07/26 12:03:53;;;;;;;8.57;2.50;;;23.90;71.00;;;;;;4989660;28;20233;-94
2022/07/26 12:06:26;;;;;;;7.73;2.60;;;23.90;71.10;;;;;;5000221;28;20216;-95
2022/07/26 12:09:04;;;;;;;11.37;2.90;;;23.90;70.90;;;;;;5000898;28;20264;-95
2022/07/26 12:11:39;;;;;;;7.43;2.73;;;23.90;70.30;;;;;;4980774;28;20205;-94
2022/07/26 12:14:10;;;;;;;11.40;3.33;;;23.90;71.20;;;;;;4982650;28;20221;-95
2022/07/26 12:16:42;;;;;;;9.73;2.93;;;23.90;71.10;;;;;;5015748;28;20198;-95
2022/07/26 12:19:25;;;;;;;13.07;4.40;;;23.90;70.70;;;;;;5018668;28;20232;-93
2022/07/26 12:22:21;;;;;;;10.80;3.00;;;23.90;71.00;;;;;;4998627;28;20207;-96
2022/07/26 12:24:56;;;;;;;7.37;2.30;;;24.00;71.10;;;;;;4996269;28;20846;-93
2022/07/26 12:27:27;;;;;;;9.53;2.80;;;24.00;70.90;;;;;;4985873;28;20245;-95
2022/07/26 12:30:36;;;;;;;8.57;2.97;;;24.00;71.20;;;;;;4994849;28;20210;-94
2022/07/26 12:33:11;;;;;;;6.73;2.13;;;24.00;71.40;;;;;;5007740;28;20278;-93
2022/07/26 12:35:39;;;;;;;7.47;2.80;;;24.10;70.80;;;;;;5004475;28;20216;-96
2022/07/26 12:38:17;;;;;;;7.53;2.30;;;24.10;70.20;;;;;;4998914;28;20201;-94
2022/07/26 12:40:52;;;;;;;10.70;2.50;;;24.10;69.20;;;;;;5005085;28;20209;-95
2022/07/26 12:43:38;;;;;;;10.77;2.93;;;24.10;69.10;;;;;;5002229;28;20244;-96
2022/07/26 12:46:47;;;;;;;10.10;3.17;;;24.10;68.70;;;;;;5005932;28;20213;-96
2022/07/26 13:07:33;;;;;;;3.57;1.53;;;24.40;65.20;;;;;;5001887;28;20255;-96
2022/07/26 13:16:29;;;;;;;10.60;3.70;;;24.40;64.30;;;;;;5210004;22;20247;-96
2022/07/26 13:25:47;;;;;;;8.40;2.77;;;24.60;63.50;;;;;;4980440;28;20194;-95
2022/07/26 13:28:15;;;;;;;10.90;3.23;;;24.70;63.10;;;;;;4996466;28;20233;-95
2022/07/26 13:30:48;;;;;;;7.97;2.60;;;24.70;63.50;;;;;;4993301;28;20313;-91
2022/07/26 13:33:17;;;;;;;9.77;3.03;;;24.70;63.10;;;;;;4988993;28;20202;-96
2022/07/26 13:35:45;;;;;;;10.90;2.87;;;24.80;63.20;;;;;;4993750;28;20694;-92
2022/07/26 13:38:13;;;;;;;11.33;2.93;;;24.80;62.80;;;;;;4993453;28;20217;-93
2022/07/26 13:40:40;;;;;;;11.27;3.47;;;24.80;62.40;;;;;;4993799;28;20293;-91
2022/07/26 13:43:10;;;;;;;9.97;3.27;;;24.90;62.50;;;;;;4991985;28;20202;-94
2022/07/26 13:46:04;;;;;;;14.37;4.17;;;24.90;61.90;;;;;;4994986;28;20237;-93
2022/07/26 13:48:40;;;;;;;9.63;3.70;;;24.90;61.80;;;;;;4980721;28;20267;-93
2022/07/26 13:51:22;;;;;;;9.70;2.97;;;25.00;62.10;;;;;;4998877;28;20236;-96
2022/07/26 13:53:51;;;;;;;8.90;3.10;;;25.00;61.50;;;;;;4994464;28;20233;-95
2022/07/26 13:56:20;;;;;;;7.50;2.13;;;25.00;61.60;;;;;;4994781;28;20243;-95
2022/07/26 13:59:11;;;;;;;15.20;4.40;;;25.10;61.10;;;;;;4994729;28;20278;-92
2022/07/26 14:01:39;;;;;;;11.77;4.27;;;25.10;59.80;;;;;;4990499;28;20653;-93
2022/07/26 14:04:26;;;;;;;7.23;2.13;;;25.10;61.00;;;;;;4997659;28;20230;-94
2022/07/26 14:07:14;;;;;;;11.37;3.37;;;25.10;60.70;;;;;;4993803;28;20211;-95
2022/07/26 14:09:42;;;;;;;14.83;4.63;;;25.20;61.10;;;;;;4991514;28;20636;-94
2022/07/26 14:12:15;;;;;;;9.43;3.53;;;25.20;61.40;;;;;;4991055;28;20209;-94
2022/07/26 14:14:43;;;;;;;13.07;4.20;;;25.30;60.40;;;;;;4994346;28;20217;-94
2022/07/26 14:17:10;;;;;;;9.57;3.33;;;25.40;59.90;;;;;;4991143;28;20820;-95
2022/07/26 14:19:37;;;;;;;8.43;2.97;;;25.50;60.00;;;;;;4995027;28;20229;-95
2022/07/26 14:22:10;;;;;;;10.90;4.10;;;25.60;60.00;;;;;;5017044;28;20209;-94
2022/07/26 14:24:37;;;;;;;11.50;3.90;;;25.70;59.90;;;;;;5015946;28;20234;-96
2022/07/26 14:27:07;;;;;;;6.77;2.57;;;25.80;59.40;;;;;;5005385;28;20201;-96
2022/07/26 14:29:50;;;;;;;11.50;2.90;;;25.90;58.90;;;;;;4989806;28;20217;-94
2022/07/26 14:32:18;;;;;;;11.20;4.00;;;25.90;58.40;;;;;;4990911;28;20209;-94